Patriot, OH (45658)

10:08 AM EST on December 25, 2014 (GMT -0500)
Tycoon Lake | Change Station
CLOSE
Current Station
Personal Weather Station
Location: Bidwell, OH
Elevation: 791 ft
Nearby Weather Stations

Elev 791 ft 38.92 °N, 82.37 °W | Updated 8 minutes ago

Overcast
Overcast
39.9 °F
Feels Like 35 °F
N
7.8
Wind Variable Wind from WSW

Today
High -- | Low -- °F
--% Chance of Precip.
Yesterday
High -- | Low -- °F
Precip. -- in
7:46 AM 5:13 PM
Waxing Crescent, 17% visible
Pressure 30.10 in
Visibility 10.0 miles
Clouds Scattered Clouds 2300 ft
Scattered Clouds 2900 ft
Overcast 3700 ft
Windchill 35 °F
Dew Point 34 °F
Humidity 78%
Rainfall 0.00 in
Snow Depth Not available.
UV 0 out of 12
Pollen .10 out of 12
Air Quality Not available.
Flu Activity Not available.
METAR K3I2 251455Z AUTO 24010G17KT 10SM SCT023 SCT029 OVC037 06/01 A3010 RMK AO2

More Conditions Fewer Conditions

Pressure 30.10 in
Visibility 10.0 miles
Clouds Scattered Clouds 2300 ft
Scattered Clouds 2900 ft
Overcast 3700 ft
Windchill 35 °F
Dew Point 34 °F
Humidity 78%
Rainfall 0.00 in
Snow Depth Not available.
UV 0 out of 12
Pollen .10 out of 12
Air Quality Not available.
Flu Activity Not available.
METAR K3I2 251455Z AUTO 24010G17KT 10SM SCT023 SCT029 OVC037 06/01 A3010 RMK AO2

More Conditions Fewer Conditions

10-Day Weather Forecast

Almanac

Astronomy

Dec. 25, 2014 Rise Set
Actual Time
Civil Twilight
Nautical Twilight
Astronomical Twilight
Moon
Length of Visible Light
Length of Day
Tomorrow will be .
, % of the Moon is Illuminated

Today's Extremes

State Highs State Lows

Community

WunderPhotos

Upload Photos

1,780,290 photos uploaded!

WunderBlogs® & News

Nearby

Air Quality

  Air Quality AQ Index Pollutant
Not available.

Snow Depth

Station Depth Elevation

Earthquake Activity

City Distance Mag. Time & Date
Minimum magnitude displayed is 2.5.

Coastal Water Temperatures

Place Temperature

Nearby Weather Stations